createdAt,value
2019-06-08T00:00:00.190Z,9.60
2019-06-08T00:02:32.430Z,11.73
2019-06-08T00:05:07.092Z,11.83
2019-06-08T00:07:40.342Z,9.35
2019-06-08T00:10:12.937Z,8.48
2019-06-08T00:12:45.222Z,6.40
2019-06-08T00:15:18.627Z,7.78
2019-06-08T00:17:51.099Z,8.43
2019-06-08T00:20:23.798Z,8.30
2019-06-08T00:22:56.187Z,5.15
2019-06-08T00:25:28.566Z,8.15
2019-06-08T00:28:01.464Z,6.60
2019-06-08T00:30:35.258Z,7.25
2019-06-08T00:33:07.948Z,9.58
2019-06-08T00:35:40.232Z,7.45
2019-06-08T00:38:12.579Z,11.53
2019-06-08T00:40:45.639Z,8.50
2019-06-08T00:43:19.063Z,11.60
2019-06-08T00:45:51.738Z,9.70
2019-06-08T00:48:24.829Z,11.40
2019-06-08T00:50:58.462Z,9.70
2019-06-08T00:53:30.773Z,9.75
2019-06-08T00:56:03.122Z,9.70
2019-06-08T00:58:36.056Z,7.37
2019-06-08T01:01:08.818Z,10.63
2019-06-08T01:03:41.372Z,13.45
2019-06-08T01:06:14.660Z,6.10
2019-06-08T01:08:47.107Z,9.43
2019-06-08T01:11:20.814Z,6.62
2019-06-08T01:13:54.622Z,10.58
2019-06-08T01:16:27.264Z,9.20
2019-06-08T01:18:59.575Z,9.38
2019-06-08T01:21:32.049Z,12.75
2019-06-08T01:24:04.686Z,9.75
2019-06-08T01:26:37.157Z,7.03
2019-06-08T01:29:09.631Z,9.83
2019-06-08T01:31:41.863Z,7.17
2019-06-08T01:34:14.175Z,5.40
2019-06-08T01:36:46.480Z,9.23
2019-06-08T01:39:18.882Z,12.00
2019-06-08T01:41:51.417Z,6.97
2019-06-08T01:44:25.679Z,10.10
2019-06-08T01:46:58.229Z,8.80
2019-06-08T01:49:30.716Z,8.93
2019-06-08T01:52:03.183Z,8.35
2019-06-08T01:54:35.457Z,8.35
2019-06-08T01:57:08.839Z,8.18
2019-06-08T01:59:41.200Z,14.50
2019-06-08T02:02:14.858Z,12.95
2019-06-08T02:04:47.387Z,14.23
2019-06-08T02:07:20.005Z,12.88
2019-06-08T02:09:52.613Z,13.90
2019-06-08T02:12:25.134Z,12.23
2019-06-08T02:14:57.673Z,13.65
2019-06-08T02:17:31.291Z,10.88
2019-06-08T02:20:05.517Z,8.38
2019-06-08T02:22:39.290Z,11.20
2019-06-08T02:25:13.815Z,7.12
2019-06-08T02:27:46.275Z,7.85
2019-06-08T02:30:19.666Z,9.18
2019-06-08T02:32:52.093Z,8.45
2019-06-08T02:35:24.433Z,7.97
2019-06-08T02:37:56.781Z,9.23
2019-06-08T02:40:30.294Z,8.13
2019-06-08T02:43:03.523Z,10.32
2019-06-08T02:45:37.058Z,11.22
2019-06-08T02:48:10.447Z,11.67
2019-06-08T02:50:57.346Z,10.95
2019-06-08T02:53:32.159Z,9.68
2019-06-08T02:56:05.450Z,5.70
2019-06-08T02:58:40.762Z,6.47
2019-06-08T03:01:15.171Z,7.45
2019-06-08T03:03:49.651Z,9.63
2019-06-08T03:06:22.093Z,12.18
2019-06-08T03:08:57.605Z,10.18
2019-06-08T03:11:32.551Z,11.08
2019-06-08T03:14:05.185Z,13.05
2019-06-08T03:16:39.001Z,9.25
2019-06-08T03:19:21.610Z,14.38
2019-06-08T03:21:46.034Z,13.13
2019-06-08T03:24:20.029Z,12.68
2019-06-08T03:26:55.314Z,13.18
2019-06-08T03:29:27.756Z,18.05
2019-06-08T03:32:00.378Z,18.48
2019-06-08T03:34:35.561Z,15.88
2019-06-08T03:37:07.614Z,13.68
2019-06-08T03:39:41.306Z,16.95
2019-06-08T03:42:14.290Z,13.17
2019-06-08T03:44:47.402Z,16.35
2019-06-08T03:47:19.927Z,14.93
2019-06-08T03:49:57.381Z,11.20
2019-06-08T03:52:26.651Z,11.47
2019-06-08T03:54:59.120Z,11.50
2019-06-08T03:57:31.717Z,12.68
2019-06-08T04:00:12.918Z,15.63
2019-06-08T04:02:44.802Z,17.00
2019-06-08T04:05:17.086Z,10.15
2019-06-08T04:07:50.497Z,10.78
2019-06-08T04:10:23.208Z,9.90
2019-06-08T04:12:55.636Z,9.73
2019-06-08T04:15:28.088Z,13.08
2019-06-08T04:18:01.831Z,17.30
2019-06-08T04:20:37.961Z,12.43
2019-06-08T04:23:10.976Z,10.90
2019-06-08T04:25:45.013Z,11.22
2019-06-08T04:28:17.691Z,13.38
2019-06-08T04:30:50.218Z,13.43
2019-06-08T04:33:23.234Z,9.43
2019-06-08T04:35:58.659Z,8.70
2019-06-08T04:38:30.966Z,10.98
2019-06-08T04:41:03.510Z,9.20
2019-06-08T04:43:35.834Z,9.35
2019-06-08T04:46:08.179Z,9.78
2019-06-08T04:48:40.690Z,10.25
2019-06-08T04:51:13.975Z,8.75
2019-06-08T04:53:47.182Z,9.88
2019-06-08T04:56:33.554Z,12.05
2019-06-08T04:59:06.735Z,9.25
2019-06-08T05:01:40.893Z,10.35
2019-06-08T05:04:13.864Z,11.18
2019-06-08T05:06:47.227Z,11.88
2019-06-08T05:09:20.779Z,12.07
2019-06-08T05:11:57.855Z,13.75
2019-06-08T05:14:31.063Z,9.98
2019-06-08T05:17:05.352Z,13.72
2019-06-08T05:19:39.255Z,12.90
2019-06-08T05:22:12.569Z,10.40
2019-06-08T05:24:45.611Z,13.43
2019-06-08T05:27:18.247Z,13.78
2019-06-08T05:29:50.704Z,10.85
2019-06-08T05:32:23.293Z,10.03
2019-06-08T05:34:55.844Z,10.68
2019-06-08T05:37:33.090Z,8.58
2019-06-08T05:40:07.234Z,9.08
2019-06-08T05:42:42.126Z,11.63
2019-06-08T05:45:14.329Z,11.50
2019-06-08T05:47:47.930Z,12.98
2019-06-08T05:50:21.263Z,10.93
2019-06-08T05:52:53.678Z,10.25
2019-06-08T05:55:26.253Z,11.85
2019-06-08T05:57:58.718Z,9.65
2019-06-08T06:00:31.040Z,12.30
2019-06-08T06:03:03.652Z,12.58
2019-06-08T06:05:36.081Z,13.78
2019-06-08T06:08:18.282Z,10.63
2019-06-08T06:10:44.778Z,10.10
2019-06-08T06:13:18.176Z,7.75
2019-06-08T06:15:51.694Z,10.40
2019-06-08T06:18:24.408Z,9.03
2019-06-08T06:21:10.368Z,7.95
2019-06-08T06:23:31.465Z,7.47
2019-06-08T06:26:03.826Z,7.22
2019-06-08T06:28:36.193Z,9.40
2019-06-08T06:31:08.620Z,7.75
2019-06-08T06:33:41.978Z,7.75
2019-06-08T06:36:15.017Z,8.63
2019-06-08T06:38:48.269Z,8.63
2019-06-08T06:41:20.891Z,9.53
2019-06-08T06:43:53.184Z,9.23
2019-06-08T06:46:25.646Z,6.95
2019-06-08T06:48:58.069Z,5.67
2019-06-08T06:51:30.494Z,5.53
2019-06-08T06:54:03.229Z,5.62
2019-06-08T06:56:35.608Z,7.37
2019-06-08T06:59:07.973Z,5.05
2019-06-08T07:01:40.419Z,4.90
2019-06-08T07:04:14.969Z,5.33
2019-06-08T07:06:48.118Z,6.20
2019-06-08T07:09:21.465Z,6.63
2019-06-08T07:11:56.181Z,11.60
2019-06-08T07:14:27.947Z,7.12
2019-06-08T07:17:01.818Z,6.92
2019-06-08T07:19:34.719Z,6.67
2019-06-08T07:22:07.262Z,5.10
2019-06-08T07:24:39.830Z,7.55
2019-06-08T07:27:12.169Z,11.15
2019-06-08T07:29:47.100Z,7.33
2019-06-08T07:32:20.218Z,6.00
2019-06-08T07:34:53.147Z,6.60
2019-06-08T07:37:28.361Z,7.78
2019-06-08T07:40:00.711Z,6.33
2019-06-08T07:42:33.038Z,5.20
2019-06-08T07:45:07.680Z,5.97
2019-06-08T07:47:40.205Z,7.70
2019-06-08T07:50:15.026Z,7.62
2019-06-08T07:52:49.506Z,5.40
2019-06-08T07:55:22.531Z,7.17
2019-06-08T07:57:56.203Z,9.43
2019-06-08T08:00:28.736Z,6.15
2019-06-08T08:03:01.115Z,10.78
2019-06-08T08:05:34.471Z,7.85
2019-06-08T08:08:06.838Z,7.28
2019-06-08T08:10:39.204Z,8.80
2019-06-08T08:13:13.115Z,11.48
2019-06-08T08:15:45.651Z,7.67
2019-06-08T08:18:17.983Z,11.93
2019-06-08T08:20:51.075Z,9.78
2019-06-08T08:23:23.515Z,9.73
2019-06-08T08:25:57.923Z,7.03
2019-06-08T08:28:30.073Z,10.82
2019-06-08T08:31:03.826Z,10.48
2019-06-08T08:33:37.970Z,11.97
2019-06-08T08:36:10.708Z,10.95
2019-06-08T08:38:43.292Z,8.18
2019-06-08T08:41:18.189Z,8.28
2019-06-08T08:43:51.320Z,7.53
2019-06-08T08:46:23.876Z,7.60
2019-06-08T08:49:05.957Z,7.00
2019-06-08T08:51:30.910Z,9.88
2019-06-08T08:54:05.480Z,5.25
2019-06-08T08:56:38.607Z,9.43
2019-06-08T08:59:12.273Z,9.47
2019-06-08T09:01:48.291Z,7.50
2019-06-08T09:04:20.943Z,7.25
2019-06-08T09:06:53.566Z,9.25
2019-06-08T09:09:28.848Z,5.50
2019-06-08T09:12:04.165Z,5.40
2019-06-08T09:14:34.826Z,6.97
2019-06-08T09:17:08.933Z,7.95
2019-06-08T09:19:41.368Z,7.90
2019-06-08T09:22:14.233Z,5.50
2019-06-08T09:24:48.565Z,9.45
2019-06-08T09:27:20.725Z,7.35
2019-06-08T09:29:53.780Z,6.90
2019-06-08T09:32:28.724Z,6.08
2019-06-08T09:35:04.624Z,4.83
2019-06-08T09:37:37.547Z,7.75
2019-06-08T09:40:10.854Z,6.50
2019-06-08T09:42:43.200Z,6.10
2019-06-08T09:45:18.039Z,7.37
2019-06-08T09:47:51.372Z,5.80
2019-06-08T09:50:23.782Z,9.97
2019-06-08T09:53:10.128Z,6.62
2019-06-08T09:55:32.647Z,10.23
2019-06-08T09:58:09.516Z,9.98
2019-06-08T10:00:39.468Z,5.58
2019-06-08T10:03:12.432Z,10.88
2019-06-08T10:05:45.033Z,7.30
2019-06-08T10:08:20.212Z,7.65
2019-06-08T10:10:54.397Z,4.90
2019-06-08T10:13:28.018Z,4.90
2019-06-08T10:16:03.589Z,6.28
2019-06-08T10:18:35.673Z,8.80
2019-06-08T10:21:09.905Z,7.95
2019-06-08T10:23:43.567Z,6.83
2019-06-08T10:26:17.811Z,8.15
2019-06-08T10:28:51.240Z,8.00
2019-06-08T10:31:38.334Z,7.57
2019-06-08T10:34:01.824Z,7.55
2019-06-08T10:36:32.702Z,6.77
2019-06-08T10:39:11.519Z,5.25
2019-06-08T10:41:41.490Z,8.20
2019-06-08T10:44:14.578Z,3.55
2019-06-08T10:46:48.577Z,5.87
2019-06-08T10:49:21.054Z,3.00
2019-06-08T10:51:53.601Z,6.17
2019-06-08T10:54:27.749Z,4.47
2019-06-08T10:57:02.557Z,3.60
2019-06-08T10:59:36.593Z,6.90
2019-06-08T11:02:13.704Z,5.53
2019-06-08T11:04:43.912Z,2.77
2019-06-08T11:07:16.698Z,11.00
2019-06-08T11:09:51.365Z,6.08
2019-06-08T11:12:23.660Z,6.65
2019-06-08T11:14:58.437Z,4.00
2019-06-08T11:17:31.748Z,7.03
2019-06-08T11:20:11.180Z,6.92
2019-06-08T11:22:41.049Z,5.05
2019-06-08T11:25:16.662Z,5.22
2019-06-08T11:27:50.120Z,3.83
2019-06-08T11:30:27.153Z,5.25
2019-06-08T11:32:57.813Z,4.75
2019-06-08T11:35:31.069Z,6.72
2019-06-08T11:38:04.153Z,6.12
2019-06-08T11:40:39.784Z,7.62
2019-06-08T11:43:12.171Z,8.70
2019-06-08T11:45:44.866Z,4.80
2019-06-08T11:48:18.252Z,6.85
2019-06-08T11:50:53.126Z,4.47
2019-06-08T11:53:25.631Z,5.65
2019-06-08T11:55:58.642Z,7.97
2019-06-08T11:58:33.371Z,4.03
2019-06-08T12:01:13.719Z,5.80
2019-06-08T12:03:49.248Z,5.47
2019-06-08T12:06:23.697Z,7.83
2019-06-08T12:08:57.361Z,6.15
2019-06-08T12:11:33.695Z,5.40
2019-06-08T12:14:10.797Z,4.33
2019-06-08T12:16:42.830Z,4.28
2019-06-08T12:19:20.339Z,3.83
2019-06-08T12:21:52.512Z,7.25
2019-06-08T12:24:41.060Z,19.30
2019-06-08T12:27:10.198Z,5.08
2019-06-08T12:29:36.684Z,6.55
2019-06-08T12:32:10.802Z,5.40
2019-06-08T12:34:43.020Z,4.80
2019-06-08T12:37:21.307Z,4.85
2019-06-08T12:39:49.700Z,6.42
2019-06-08T12:42:24.893Z,4.70
2019-06-08T12:44:58.630Z,9.60
2019-06-08T12:47:31.705Z,4.90
2019-06-08T12:50:05.362Z,7.43
2019-06-08T12:52:42.986Z,5.08
2019-06-08T12:55:19.977Z,3.60
2019-06-08T12:57:51.550Z,5.97
2019-06-08T13:00:24.855Z,7.67
2019-06-08T13:02:58.129Z,9.83
2019-06-08T13:05:30.842Z,10.05
2019-06-08T13:08:04.088Z,4.30
2019-06-08T13:10:38.169Z,6.25
2019-06-08T13:13:12.794Z,4.75
2019-06-08T13:15:48.365Z,3.95
2019-06-08T13:18:21.445Z,7.58
2019-06-08T13:20:54.106Z,6.78
2019-06-08T13:23:28.295Z,5.35
2019-06-08T13:26:00.718Z,6.42
2019-06-08T13:28:33.155Z,4.42
2019-06-08T13:31:07.904Z,5.33
2019-06-08T13:33:39.681Z,7.33
2019-06-08T13:36:12.355Z,5.67
2019-06-08T13:38:44.879Z,6.53
2019-06-08T13:41:20.242Z,6.72
2019-06-08T13:43:51.727Z,6.47
2019-06-08T13:46:24.004Z,6.55
2019-06-08T13:48:58.363Z,7.75
2019-06-08T13:51:30.436Z,5.10
2019-06-08T13:54:03.943Z,4.03
2019-06-08T13:56:38.476Z,5.10
2019-06-08T13:59:10.750Z,2.90
2019-06-08T14:01:47.704Z,3.98
2019-06-08T14:04:21.048Z,6.75
2019-06-08T14:06:53.963Z,6.37
2019-06-08T14:09:28.420Z,7.15
2019-06-08T14:14:34.633Z,5.35
2019-06-08T14:17:08.489Z,4.45
2019-06-08T14:19:42.546Z,3.95
2019-06-08T14:22:18.326Z,6.10
2019-06-08T14:24:51.104Z,7.20
2019-06-08T14:27:23.549Z,4.60
2019-06-08T14:29:58.289Z,5.87
2019-06-08T14:32:31.390Z,4.03
2019-06-08T14:35:03.833Z,7.90
2019-06-08T14:37:38.137Z,4.25
2019-06-08T14:40:10.812Z,8.48
2019-06-08T14:42:45.345Z,5.45
2019-06-08T14:45:19.240Z,3.83
2019-06-08T14:47:51.929Z,7.08
2019-06-08T14:50:24.522Z,6.65
2019-06-08T14:52:59.087Z,3.72
2019-06-08T14:55:34.262Z,7.25
2019-06-08T14:58:08.282Z,6.70
2019-06-08T15:00:40.255Z,5.90
2019-06-08T15:03:12.648Z,5.33
2019-06-08T15:05:45.060Z,6.60
2019-06-08T15:08:17.673Z,8.25
2019-06-08T15:10:52.105Z,8.28
2019-06-08T15:13:26.228Z,5.33
2019-06-08T15:16:00.713Z,8.57
2019-06-08T15:18:34.340Z,5.92
2019-06-08T15:21:07.940Z,9.38
2019-06-08T15:23:40.611Z,9.43
2019-06-08T15:26:28.165Z,7.25
2019-06-08T15:28:52.736Z,11.78
2019-06-08T15:31:25.213Z,9.63
2019-06-08T15:34:01.344Z,8.73
2019-06-08T15:36:32.830Z,8.98
2019-06-08T15:39:08.824Z,9.73
2019-06-08T15:41:41.252Z,9.60
2019-06-08T15:44:13.832Z,9.15
2019-06-08T15:46:48.878Z,7.45
2019-06-08T15:49:22.175Z,8.13
2019-06-08T15:51:55.019Z,7.90
2019-06-08T15:54:33.590Z,7.40
2019-06-08T15:57:02.618Z,15.70
2019-06-08T15:59:40.030Z,10.75
2019-06-08T16:02:10.858Z,10.03
2019-06-08T16:04:43.357Z,7.60
2019-06-08T16:07:16.511Z,8.25
2019-06-08T16:09:51.363Z,10.30
2019-06-08T16:12:26.209Z,6.45
2019-06-08T16:14:58.719Z,7.20
2019-06-08T16:17:31.267Z,13.90
2019-06-08T16:20:04.396Z,8.53
2019-06-08T16:22:38.149Z,8.95
2019-06-08T16:25:10.637Z,9.60
2019-06-08T16:27:43.092Z,9.48
2019-06-08T16:30:16.320Z,10.25
2019-06-08T16:32:48.923Z,8.48
2019-06-08T16:35:21.775Z,10.90
2019-06-08T16:37:54.359Z,9.10
2019-06-08T16:40:27.691Z,7.62
2019-06-08T16:42:59.955Z,9.05
2019-06-08T16:45:33.146Z,5.65
2019-06-08T16:48:05.822Z,6.08
2019-06-08T16:50:38.547Z,7.20
2019-06-08T16:53:11.196Z,9.85
2019-06-08T16:55:45.083Z,7.10
2019-06-08T16:58:17.387Z,8.58
2019-06-08T17:00:50.066Z,5.37
2019-06-08T17:03:22.535Z,7.62
2019-06-08T17:05:54.974Z,7.03
2019-06-08T17:08:27.383Z,9.58
2019-06-08T17:11:00.840Z,7.10
2019-06-08T17:13:34.097Z,7.58
2019-06-08T17:16:06.542Z,6.50
2019-06-08T17:18:40.260Z,5.85
2019-06-08T17:21:13.755Z,7.12
2019-06-08T17:23:46.431Z,9.68
2019-06-08T17:26:20.807Z,12.03
2019-06-08T17:28:54.107Z,6.53
2019-06-08T17:31:27.031Z,7.22
2019-06-08T17:33:59.782Z,5.35
2019-06-08T17:36:32.630Z,5.22
2019-06-08T17:39:07.151Z,7.40
2019-06-08T17:41:40.477Z,6.33
2019-06-08T17:44:14.248Z,5.80
2019-06-08T17:46:47.821Z,6.78
2019-06-08T17:49:21.222Z,4.85
2019-06-08T17:51:54.570Z,5.42
2019-06-08T17:54:27.545Z,6.28
2019-06-08T17:57:00.824Z,8.00
2019-06-08T17:59:35.305Z,5.17
2019-06-08T18:02:13.726Z,8.53
2019-06-08T18:04:44.528Z,4.50
2019-06-08T18:07:17.694Z,7.70
2019-06-08T18:09:50.697Z,7.65
2019-06-08T18:12:23.642Z,4.85
2019-06-08T18:14:57.992Z,7.47
2019-06-08T18:17:31.321Z,9.80
2019-06-08T18:20:07.768Z,5.53
2019-06-08T18:22:42.803Z,10.43
2019-06-08T18:25:17.418Z,9.05
2019-06-08T18:30:27.635Z,6.45
2019-06-08T18:33:01.322Z,15.43
2019-06-08T18:35:37.368Z,18.70
2019-06-08T18:38:12.931Z,18.05
2019-06-08T18:40:48.316Z,15.53
2019-06-08T18:43:30.613Z,14.15
2019-06-08T18:46:07.064Z,15.68
2019-06-08T18:48:42.143Z,14.30
2019-06-08T18:51:18.009Z,14.18
2019-06-08T18:54:07.232Z,15.30
2019-06-08T18:56:28.255Z,14.07
2019-06-08T18:59:02.647Z,13.72
2019-06-08T19:01:39.093Z,10.38
2019-06-08T19:04:12.072Z,9.40
2019-06-08T19:06:50.117Z,9.40
2019-06-08T19:09:24.777Z,12.60
2019-06-08T19:11:58.762Z,9.68
2019-06-08T19:14:34.403Z,10.18
2019-06-08T19:17:11.177Z,8.80
2019-06-08T19:19:48.456Z,10.23
2019-06-08T19:22:20.266Z,9.68
2019-06-08T19:24:53.920Z,9.13
2019-06-08T19:27:27.751Z,10.70
2019-06-08T19:30:02.893Z,9.13
2019-06-08T19:32:41.877Z,11.93
2019-06-08T19:35:18.410Z,11.78
2019-06-08T19:40:27.172Z,10.90
2019-06-08T19:45:40.270Z,8.28
2019-06-08T19:48:17.389Z,8.68
2019-06-08T19:50:54.262Z,7.92
2019-06-08T19:53:28.637Z,6.60
2019-06-08T19:58:50.062Z,6.72
2019-06-08T20:01:11.727Z,8.08
2019-06-08T20:03:46.979Z,8.93
2019-06-08T20:06:21.191Z,7.62
2019-06-08T20:08:57.564Z,7.90
2019-06-08T20:11:34.045Z,11.57
2019-06-08T20:14:08.048Z,10.35
2019-06-08T20:16:42.712Z,9.98
2019-06-08T20:19:17.979Z,10.45
2019-06-08T20:21:53.447Z,9.43
2019-06-08T20:24:27.960Z,9.23
2019-06-08T20:27:00.843Z,8.90
2019-06-08T20:29:33.449Z,7.80
2019-06-08T20:32:08.470Z,8.25
2019-06-08T20:34:42.437Z,9.95
2019-06-08T20:37:17.524Z,8.35
2019-06-08T20:40:05.800Z,9.83
2019-06-08T20:42:24.062Z,10.63
2019-06-08T20:44:57.820Z,9.73
2019-06-08T20:47:30.479Z,12.10
2019-06-08T20:50:02.997Z,11.93
2019-06-08T20:52:37.767Z,10.25
2019-06-08T20:55:10.494Z,11.80
2019-06-08T20:57:43.134Z,15.68
2019-06-08T21:00:16.021Z,9.73
2019-06-08T21:02:50.315Z,9.80
2019-06-08T21:05:22.313Z,14.30
2019-06-08T21:07:58.884Z,10.50
2019-06-08T21:10:30.842Z,10.05
2019-06-08T21:13:07.143Z,12.18
2019-06-08T21:15:39.148Z,10.82
2019-06-08T21:18:12.194Z,11.80
2019-06-08T21:20:47.172Z,12.93
2019-06-08T21:23:19.937Z,8.80
2019-06-08T21:25:54.071Z,12.95
2019-06-08T21:28:28.087Z,12.98
2019-06-08T21:31:02.146Z,14.93
2019-06-08T21:33:37.835Z,15.00
2019-06-08T21:36:10.192Z,18.10
2019-06-08T21:38:54.958Z,14.45
2019-06-08T21:41:24.733Z,22.05
2019-06-08T21:44:00.772Z,19.95
2019-06-08T21:46:31.564Z,17.48
2019-06-08T21:49:04.105Z,17.05
2019-06-08T21:51:39.832Z,20.48
2019-06-08T21:54:12.406Z,16.97
2019-06-08T21:56:44.915Z,16.00
2019-06-08T21:59:18.196Z,15.20
2019-06-08T22:01:53.044Z,14.23
2019-06-08T22:04:27.548Z,15.10
2019-06-08T22:07:01.449Z,16.63
2019-06-08T22:09:33.603Z,14.58
2019-06-08T22:12:07.195Z,13.58
2019-06-08T22:14:39.849Z,13.95
2019-06-08T22:17:16.045Z,16.87
2019-06-08T22:19:48.700Z,19.17
2019-06-08T22:22:21.217Z,15.55
2019-06-08T22:24:55.428Z,13.30
2019-06-08T22:27:28.035Z,11.00
2019-06-08T22:30:01.316Z,14.23
2019-06-08T22:32:38.496Z,14.23
2019-06-08T22:35:13.157Z,12.95
2019-06-08T22:37:47.914Z,10.43
2019-06-08T22:40:20.084Z,14.55
2019-06-08T22:42:52.594Z,11.63
2019-06-08T22:45:25.156Z,16.30
2019-06-08T22:48:00.446Z,11.65
2019-06-08T22:50:31.811Z,11.70
2019-06-08T22:53:07.817Z,11.70
2019-06-08T22:55:39.989Z,14.70
2019-06-08T22:58:13.857Z,9.73
2019-06-08T23:00:52.701Z,13.28
2019-06-08T23:03:20.736Z,14.60
2019-06-08T23:05:54.801Z,15.95
2019-06-08T23:08:27.554Z,14.05
2019-06-08T23:11:02.009Z,13.55
2019-06-08T23:13:34.172Z,12.37
2019-06-08T23:16:08.845Z,12.35
2019-06-08T23:18:40.904Z,11.20
2019-06-08T23:21:13.303Z,13.43
2019-06-08T23:23:47.655Z,11.95
2019-06-08T23:26:20.202Z,10.37
2019-06-08T23:28:52.752Z,11.35
2019-06-08T23:31:28.424Z,11.60
2019-06-08T23:34:01.970Z,9.03
2019-06-08T23:36:48.416Z,9.60
2019-06-08T23:39:10.079Z,9.75
2019-06-08T23:41:42.369Z,7.17
2019-06-08T23:44:14.668Z,9.38
2019-06-08T23:46:48.427Z,9.75
2019-06-08T23:49:21.571Z,11.73
2019-06-08T23:51:58.132Z,12.65
2019-06-08T23:54:30.255Z,20.37
2019-06-08T23:57:04.892Z,28.40
2019-06-08T23:59:38.954Z,36.77
